sensor_id;sensor_type;location;lat;lon;timestamp;temperature;humidity
63407;SHT31;49543;45.892;10.838;2023-04-16T13:44:04;19.32;49.76
63407;SHT31;49543;45.892;10.838;2023-04-16T13:46:30;19.28;50.62
63407;SHT31;49543;45.892;10.838;2023-04-16T13:48:56;19.26;51.45
63407;SHT31;49543;45.892;10.838;2023-04-16T13:51:21;19.25;51.64
63407;SHT31;49543;45.892;10.838;2023-04-16T13:53:47;19.24;51.80
63407;SHT31;49543;45.892;10.838;2023-04-16T13:56:13;19.12;52.40
63407;SHT31;49543;45.892;10.838;2023-04-16T13:58:38;19.01;52.74
63407;SHT31;49543;45.892;10.838;2023-04-16T14:01:05;18.93;53.54
63407;SHT31;49543;45.892;10.838;2023-04-16T14:03:30;18.83;54.05
63407;SHT31;49543;45.892;10.838;2023-04-16T14:06:06;18.71;54.04
63407;SHT31;49543;45.892;10.838;2023-04-16T14:08:31;18.66;54.51
63407;SHT31;49543;45.892;10.838;2023-04-16T14:10:57;18.66;54.71
63407;SHT31;49543;45.892;10.838;2023-04-16T14:13:23;18.73;54.73
63407;SHT31;49543;45.892;10.838;2023-04-16T14:15:49;18.80;54.28
63407;SHT31;49543;45.892;10.838;2023-04-16T17:19:09;16.59;63.44
63407;SHT31;49543;45.892;10.838;2023-04-16T17:21:36;16.60;63.45
63407;SHT31;49543;45.892;10.838;2023-04-16T17:24:01;16.61;63.55
63407;SHT31;49543;45.892;10.838;2023-04-16T17:26:27;16.61;63.67
63407;SHT31;49543;45.892;10.838;2023-04-16T17:28:52;16.60;63.84
63407;SHT31;49543;45.892;10.838;2023-04-16T17:31:18;16.60;63.91
63407;SHT31;49543;45.892;10.838;2023-04-16T17:33:43;16.61;63.84
63407;SHT31;49543;45.892;10.838;2023-04-16T17:36:09;16.60;64.17
63407;SHT31;49543;45.892;10.838;2023-04-16T17:38:35;16.60;64.01
63407;SHT31;49543;45.892;10.838;2023-04-16T17:41:00;16.59;63.84
63407;SHT31;49543;45.892;10.838;2023-04-16T17:43:26;16.56;63.84
63407;SHT31;49543;45.892;10.838;2023-04-16T17:45:52;16.54;63.71
63407;SHT31;49543;45.892;10.838;2023-04-16T17:48:18;16.49;63.54
63407;SHT31;49543;45.892;10.838;2023-04-16T17:50:43;16.49;63.48
63407;SHT31;49543;45.892;10.838;2023-04-16T17:53:08;16.47;63.36
63407;SHT31;49543;45.892;10.838;2023-04-16T17:55:35;16.45;63.37
63407;SHT31;49543;45.892;10.838;2023-04-16T17:58:00;16.36;63.48
63407;SHT31;49543;45.892;10.838;2023-04-16T18:00:28;16.34;63.44
63407;SHT31;49543;45.892;10.838;2023-04-16T18:02:54;16.25;64.12
63407;SHT31;49543;45.892;10.838;2023-04-16T18:05:21;16.18;64.03
63407;SHT31;49543;45.892;10.838;2023-04-16T18:07:46;16.10;64.14
63407;SHT31;49543;45.892;10.838;2023-04-16T18:10:12;16.10;64.08
63407;SHT31;49543;45.892;10.838;2023-04-16T18:12:38;16.08;64.17
63407;SHT31;49543;45.892;10.838;2023-04-16T18:15:04;16.04;64.39
63407;SHT31;49543;45.892;10.838;2023-04-16T18:17:31;16.04;63.97
63407;SHT31;49543;45.892;10.838;2023-04-16T18:19:56;15.97;64.20
63407;SHT31;49543;45.892;10.838;2023-04-16T18:22:22;15.97;64.54
63407;SHT31;49543;45.892;10.838;2023-04-16T18:24:47;15.95;64.89
63407;SHT31;49543;45.892;10.838;2023-04-16T18:27:12;15.94;65.20
63407;SHT31;49543;45.892;10.838;2023-04-16T18:29:38;15.94;65.41
63407;SHT31;49543;45.892;10.838;2023-04-16T18:32:03;15.91;64.46
63407;SHT31;49543;45.892;10.838;2023-04-16T18:34:29;15.85;62.64
63407;SHT31;49543;45.892;10.838;2023-04-16T18:36:55;15.72;63.35
63407;SHT31;49543;45.892;10.838;2023-04-16T18:39:21;15.64;63.98
63407;SHT31;49543;45.892;10.838;2023-04-16T18:41:46;15.60;64.72
63407;SHT31;49543;45.892;10.838;2023-04-16T18:44:13;15.58;65.51
63407;SHT31;49543;45.892;10.838;2023-04-16T18:46:39;15.57;65.49
63407;SHT31;49543;45.892;10.838;2023-04-16T18:49:05;15.57;65.27
63407;SHT31;49543;45.892;10.838;2023-04-16T18:51:31;15.57;65.31
63407;SHT31;49543;45.892;10.838;2023-04-16T18:53:56;15.58;65.54
63407;SHT31;49543;45.892;10.838;2023-04-16T18:56:22;15.61;65.98
63407;SHT31;49543;45.892;10.838;2023-04-16T18:58:47;15.61;65.54
63407;SHT31;49543;45.892;10.838;2023-04-16T19:01:13;15.61;65.38
63407;SHT31;49543;45.892;10.838;2023-04-16T19:03:39;15.61;65.75
63407;SHT31;49543;45.892;10.838;2023-04-16T19:06:05;15.58;65.49
63407;SHT31;49543;45.892;10.838;2023-04-16T19:08:30;15.58;65.28
63407;SHT31;49543;45.892;10.838;2023-04-16T19:10:56;15.57;64.95
63407;SHT31;49543;45.892;10.838;2023-04-16T19:13:21;15.55;64.81
63407;SHT31;49543;45.892;10.838;2023-04-16T19:15:47;15.55;64.81
63407;SHT31;49543;45.892;10.838;2023-04-16T19:18:12;15.53;65.24
63407;SHT31;49543;45.892;10.838;2023-04-16T19:20:38;15.49;65.23
63407;SHT31;49543;45.892;10.838;2023-04-16T19:23:04;15.43;64.94
63407;SHT31;49543;45.892;10.838;2023-04-16T19:25:33;15.43;65.30
63407;SHT31;49543;45.892;10.838;2023-04-16T19:27:58;15.39;65.62
63407;SHT31;49543;45.892;10.838;2023-04-16T19:30:24;15.34;65.78
